Time;durP1;ratioP1;P1;durP2;ratioP2;P2;SDS_P1;SDS_P2;PMS_P1;PMS_P2;Temp;Humidity;BMP_temperature;BMP_pressure;BME280_temperature;BME280_humidity;BME280_pressure;Samples;Min_cycle;Max_cycle;Signal;HPM_P1;HPM_P2
2023/03/28 00:03:26;;;;;;;;;;;0.60;99.90;;;;;;8258916;28;19906;-77
2023/03/28 00:07:28;;;;;;;;;;;0.30;99.90;;;;;;8258687;28;19910;-77
2023/03/28 00:11:28;;;;;;;;;;;0.10;99.90;;;;;;8259471;28;19905;-77
2023/03/28 00:15:29;;;;;;;;;;;-0.30;99.90;;;;;;8257899;28;19913;-77
2023/03/28 00:19:31;;;;;;;;;;;-0.30;99.90;;;;;;8256921;28;19909;-77
2023/03/28 00:23:34;;;;;;;;;;;-0.10;99.90;;;;;;8251348;28;20004;-77
2023/03/28 00:27:35;;;;;;;;;;;-0.60;99.90;;;;;;8258048;28;19914;-77
2023/03/28 00:31:36;;;;;;;;;;;-1.00;99.90;;;;;;8254493;28;20004;-77
2023/03/28 00:35:36;;;;;;;;;;;-1.20;99.90;;;;;;8254129;28;19972;-77
2023/03/28 00:39:38;;;;;;;;;;;-1.40;99.90;;;;;;8256423;28;19910;-79
2023/03/28 00:43:40;;;;;;;;;;;-1.50;99.90;;;;;;8260416;28;19956;-78
2023/03/28 00:47:48;;;;;;;;;;;-1.70;99.90;;;;;;8263415;28;19919;-77
2023/03/28 00:51:55;;;;;;;;;;;-1.60;99.90;;;;;;8262335;28;19910;-77
2023/03/28 00:55:57;;;;;;;;;;;-1.60;99.90;;;;;;8259706;28;20282;-77
2023/03/28 00:59:58;;;;;;;;;;;-1.80;99.90;;;;;;8264452;28;20438;-78
2023/03/28 01:04:01;;;;;;;;;;;-1.90;99.90;;;;;;8263169;28;19905;-77
2023/03/28 01:08:14;;;;;;;;;;;-1.80;99.90;;;;;;8263210;28;19918;-77
2023/03/28 01:12:16;;;;;;;;;;;-2.00;99.90;;;;;;8263088;28;19905;-77
2023/03/28 01:16:18;;;;;;;;;;;-2.10;99.90;;;;;;8261842;28;19941;-78
2023/03/28 01:20:45;;;;;;;;;;;-2.20;99.90;;;;;;8260350;28;19956;-79
2023/03/28 01:25:06;;;;;;;;;;;-2.10;99.90;;;;;;8259556;28;19959;-76
2023/03/28 01:29:23;;;;;;;;;;;-1.80;99.90;;;;;;8255561;28;20657;-79
2023/03/28 01:34:03;;;;;;;;;;;-2.00;99.90;;;;;;8261331;28;19910;-79
2023/03/28 01:38:12;;;;;;;;;;;-2.00;99.90;;;;;;8205324;28;19942;-77
2023/03/28 01:42:25;;;;;;;;;;;-1.90;99.90;;;;;;8224354;28;20100;-77
2023/03/28 01:46:26;;;;;;;;;;;-1.90;99.90;;;;;;8261473;28;19910;-77
2023/03/28 01:50:30;;;;;;;;;;;-1.60;99.90;;;;;;8263462;28;19910;-77
2023/03/28 01:54:42;;;;;;;;;;;-1.70;99.90;;;;;;8261692;28;19909;-77
2023/03/28 01:58:46;;;;;;;;;;;-1.90;99.90;;;;;;8261408;28;19914;-77
2023/03/28 02:02:51;;;;;;;;;;;-1.80;99.90;;;;;;8259257;28;19928;-76
2023/03/28 02:06:52;;;;;;;;;;;-1.90;99.90;;;;;;8260823;28;19914;-76
2023/03/28 02:10:54;;;;;;;;;;;-2.00;99.90;;;;;;8262533;28;20456;-77
2023/03/28 02:14:56;;;;;;;;;;;-2.00;99.90;;;;;;8261572;28;19953;-78
2023/03/28 02:18:57;;;;;;;;;;;-1.80;99.90;;;;;;8260995;28;19905;-78
2023/03/28 02:23:00;;;;;;;;;;;-1.90;99.90;;;;;;8261244;28;19925;-77
2023/03/28 02:27:00;;;;;;;;;;;-2.10;99.90;;;;;;8260789;28;19945;-78
2023/03/28 02:31:01;;;;;;;;;;;-2.20;99.90;;;;;;8260986;28;19957;-77
2023/03/28 02:35:03;;;;;;;;;;;-2.40;99.90;;;;;;8260547;28;20124;-77
2023/03/28 02:39:16;;;;;;;;;;;-2.50;99.90;;;;;;8258822;28;19906;-78
2023/03/28 02:43:22;;;;;;;;;;;-2.40;99.90;;;;;;8260698;28;19913;-77
2023/03/28 02:47:32;;;;;;;;;;;-2.70;99.90;;;;;;8260131;28;19914;-78
2023/03/28 02:51:39;;;;;;;;;;;-2.80;99.90;;;;;;8259845;28;19976;-78
2023/03/28 02:55:39;;;;;;;;;;;-2.80;99.90;;;;;;8260409;28;19913;-77
2023/03/28 02:59:54;;;;;;;;;;;-2.90;99.90;;;;;;8260548;28;19909;-78
2023/03/28 03:03:55;;;;;;;;;;;-2.90;99.90;;;;;;8259790;28;19914;-77
2023/03/28 03:07:56;;;;;;;;;;;-3.00;99.90;;;;;;8261139;28;19914;-78
2023/03/28 03:11:56;;;;;;;;;;;-3.00;99.90;;;;;;8259885;28;19914;-78
2023/03/28 03:15:57;;;;;;;;;;;-3.10;99.90;;;;;;8257363;28;20472;-77
2023/03/28 03:19:58;;;;;;;;;;;-3.20;99.90;;;;;;8253655;28;19905;-79
2023/03/28 03:23:58;;;;;;;;;;;-3.30;99.90;;;;;;8259747;28;20004;-78
2023/03/28 03:27:59;;;;;;;;;;;-3.30;99.90;;;;;;8259992;28;19921;-77
2023/03/28 03:31:59;;;;;;;;;;;-3.10;99.90;;;;;;8254256;28;19910;-76
2023/03/28 03:36:00;;;;;;;;;;;-3.10;99.90;;;;;;8258444;28;20601;-77
2023/03/28 03:40:00;;;;;;;;;;;-3.10;99.90;;;;;;8253841;28;19910;-77
2023/03/28 03:44:01;;;;;;;;;;;-3.20;99.90;;;;;;8258629;28;19956;-77
2023/03/28 03:48:01;;;;;;;;;;;-3.10;99.90;;;;;;8258380;28;19910;-77
2023/03/28 03:52:02;;;;;;;;;;;-3.10;99.90;;;;;;8253632;28;20326;-79
2023/03/28 03:56:02;;;;;;;;;;;-3.00;99.90;;;;;;8258427;28;19917;-77
2023/03/28 04:00:13;;;;;;;;;;;-3.30;99.90;;;;;;8257690;28;19906;-77
2023/03/28 04:04:14;;;;;;;;;;;-3.40;99.90;;;;;;8245569;28;19917;-77
2023/03/28 04:08:14;;;;;;;;;;;-3.40;99.90;;;;;;8242335;28;19913;-77
2023/03/28 04:12:15;;;;;;;;;;;-3.30;99.90;;;;;;8239471;28;19925;-77
2023/03/28 04:16:15;;;;;;;;;;;-3.40;99.90;;;;;;8250945;28;19916;-77
2023/03/28 04:20:16;;;;;;;;;;;-3.30;99.90;;;;;;8264056;28;19952;-77
2023/03/28 04:24:19;;;;;;;;;;;-3.30;99.90;;;;;;8264478;28;19956;-76
2023/03/28 04:28:24;;;;;;;;;;;-3.30;99.90;;;;;;8259995;28;19913;-78
2023/03/28 04:32:25;;;;;;;;;;;-3.30;99.90;;;;;;8263145;28;19941;-78
2023/03/28 04:36:25;;;;;;;;;;;-3.30;99.90;;;;;;8263911;28;20306;-76
2023/03/28 04:40:26;;;;;;;;;;;-3.20;99.90;;;;;;8254990;28;19910;-77
2023/03/28 04:44:28;;;;;;;;;;;-3.00;99.90;;;;;;8254082;28;19952;-78
2023/03/28 04:48:28;;;;;;;;;;;-2.90;99.90;;;;;;8261200;28;19921;-77
2023/03/28 04:52:29;;;;;;;;;;;-2.80;99.90;;;;;;8251182;28;19992;-77
2023/03/28 04:56:29;;;;;;;;;;;-2.70;99.90;;;;;;8247107;28;19913;-77
2023/03/28 05:00:30;;;;;;;;;;;-2.60;99.90;;;;;;8250925;28;19920;-77
2023/03/28 05:04:31;;;;;;;;;;;-2.70;99.90;;;;;;8253024;28;19925;-77
2023/03/28 05:08:31;;;;;;;;;;;-2.90;99.90;;;;;;8249486;28;19945;-79
2023/03/28 05:12:32;;;;;;;;;;;-3.00;99.90;;;;;;8253148;28;20485;-77
2023/03/28 05:16:32;;;;;;;;;;;-3.20;99.90;;;;;;8251321;28;19913;-77
2023/03/28 05:20:33;;;;;;;;;;;-3.30;99.90;;;;;;8257408;28;20405;-78
2023/03/28 05:24:33;;;;;;;;;;;-3.30;99.90;;;;;;8251315;28;20297;-77
2023/03/28 05:28:34;;;;;;;;;;;-3.20;99.90;;;;;;8266841;28;20421;-78
2023/03/28 05:32:36;;;;;;;;;;;-3.30;99.90;;;;;;8248725;28;19917;-76
2023/03/28 05:36:36;;;;;;;;;;;-3.20;99.90;;;;;;8254060;28;19912;-77
2023/03/28 05:40:37;;;;;;;;;;;-3.00;99.90;;;;;;8250741;28;19905;-77
2023/03/28 05:44:37;;;;;;;;;;;-3.00;99.90;;;;;;8260050;28;19910;-77
2023/03/28 05:48:38;;;;;;;;;;;-2.90;99.90;;;;;;8262689;28;19957;-78
2023/03/28 05:52:38;;;;;;;;;;;-2.90;99.90;;;;;;8261588;28;19912;-78
2023/03/28 05:56:39;;;;;;;;;;;-2.70;99.90;;;;;;8258772;28;19940;-77
2023/03/28 06:00:41;;;;;;;;;;;-2.40;99.90;;;;;;8264450;28;19968;-77
2023/03/28 06:04:42;;;;;;;;;;;-2.30;99.90;;;;;;8249835;28;19910;-79
2023/03/28 06:08:42;;;;;;;;;;;-2.30;99.90;;;;;;8246702;28;19917;-79
2023/03/28 06:12:43;;;;;;;;;;;-2.20;99.90;;;;;;8254949;28;19957;-78
2023/03/28 06:16:43;;;;;;;;;;;-2.10;99.90;;;;;;8260436;28;20370;-79
2023/03/28 06:20:44;;;;;;;;;;;-2.10;99.90;;;;;;8265557;28;19916;-78
2023/03/28 06:24:44;;;;;;;;;;;-2.10;99.90;;;;;;8253161;28;19973;-78
2023/03/28 06:28:45;;;;;;;;;;;-1.90;99.90;;;;;;8246934;28;19929;-78
2023/03/28 06:32:46;;;;;;;;;;;-1.90;99.90;;;;;;8251804;28;19909;-79
2023/03/28 06:36:46;;;;;;;;;;;-1.70;99.90;;;;;;8260384;28;20556;-86
2023/03/28 06:40:47;;;;;;;;;;;-1.40;99.90;;;;;;8261300;28;19910;-79
2023/03/28 06:44:47;;;;;;;;;;;-0.70;99.90;;;;;;8255808;28;20394;-78
2023/03/28 06:48:47;;;;;;;;;;;-0.40;99.90;;;;;;8255005;28;19909;-78
2023/03/28 06:52:48;;;;;;;;;;;-0.60;99.90;;;;;;8258322;28;20000;-79
2023/03/28 06:56:48;;;;;;;;;;;-0.30;99.90;;;;;;8253228;28;19912;-77
2023/03/28 07:00:50;;;;;;;;;;;0.00;99.90;;;;;;8256193;28;19984;-78
2023/03/28 07:04:51;;;;;;;;;;;0.10;99.90;;;;;;8256477;28;20185;-77
2023/03/28 07:08:52;;;;;;;;;;;0.00;99.90;;;;;;8260078;28;19910;-78
2023/03/28 07:12:52;;;;;;;;;;;0.30;99.90;;;;;;8261313;28;20048;-79
2023/03/28 07:16:53;;;;;;;;;;;0.20;99.90;;;;;;8266362;28;20309;-80
2023/03/28 07:20:54;;;;;;;;;;;0.40;99.90;;;;;;8263076;28;19965;-79
2023/03/28 07:24:55;;;;;;;;;;;0.50;99.90;;;;;;8265051;28;19928;-79
2023/03/28 07:28:56;;;;;;;;;;;0.60;99.90;;;;;;8263932;28;19914;-80
2023/03/28 07:32:56;;;;;;;;;;;0.70;99.90;;;;;;8257114;28;19912;-77
2023/03/28 07:36:57;;;;;;;;;;;0.90;99.90;;;;;;8262343;28;19913;-79
2023/03/28 07:41:01;;;;;;;;;;;0.80;99.90;;;;;;8260905;28;19912;-79
2023/03/28 07:45:01;;;;;;;;;;;0.90;99.90;;;;;;8263054;28;19909;-79
2023/03/28 07:49:02;;;;;;;;;;;1.20;99.90;;;;;;8261317;28;19910;-78
2023/03/28 07:53:03;;;;;;;;;;;1.30;99.90;;;;;;8259143;28;19909;-78
2023/03/28 07:57:04;;;;;;;;;;;1.40;99.90;;;;;;8257674;28;20001;-78
2023/03/28 08:01:05;;;;;;;;;;;1.40;99.90;;;;;;8253837;28;20385;-78
2023/03/28 08:05:06;;;;;;;;;;;1.80;99.90;;;;;;8249974;28;20335;-77
2023/03/28 08:09:07;;;;;;;;;;;1.90;99.90;;;;;;8246705;28;19976;-78
2023/03/28 08:13:07;;;;;;;;;;;2.00;99.90;;;;;;8257546;28;19912;-78
2023/03/28 08:17:08;;;;;;;;;;;2.20;99.90;;;;;;8248378;28;20309;-77
2023/03/28 08:21:09;;;;;;;;;;;2.30;99.90;;;;;;8239129;28;19916;-77
2023/03/28 08:25:09;;;;;;;;;;;2.50;99.90;;;;;;8250646;28;19918;-78
2023/03/28 08:29:10;;;;;;;;;;;2.60;99.90;;;;;;8256407;28;19968;-78
2023/03/28 08:33:11;;;;;;;;;;;2.60;99.90;;;;;;8247955;28;20478;-77
2023/03/28 08:37:11;;;;;;;;;;;2.60;99.90;;;;;;8247196;28;19912;-76
2023/03/28 08:41:12;;;;;;;;;;;2.40;99.90;;;;;;8254232;28;19917;-77
2023/03/28 08:45:21;;;;;;;;;;;2.60;99.90;;;;;;8251758;28;19914;-76
2023/03/28 08:49:22;;;;;;;;;;;3.00;99.90;;;;;;8244541;28;20047;-76
2023/03/28 08:53:25;;;;;;;;;;;3.40;99.90;;;;;;8251493;28;20342;-76
2023/03/28 08:57:28;;;;;;;;;;;3.40;99.90;;;;;;8258542;28;19917;-76
2023/03/28 09:01:31;;;;;;;;;;;3.40;99.90;;;;;;8256231;28;19910;-76
2023/03/28 09:06:02;;;;;;;;;;;3.90;99.90;;;;;;8248499;28;19918;-76
2023/03/28 09:10:21;;;;;;;;;;;5.00;99.90;;;;;;8241998;28;19917;-76
2023/03/28 09:14:40;;;;;;;;;;;6.00;99.90;;;;;;8246924;28;19933;-75
2023/03/28 09:18:54;;;;;;;;;;;5.60;99.90;;;;;;8250455;28;20429;-76
2023/03/28 09:23:01;;;;;;;;;;;5.60;99.90;;;;;;8272921;28;19909;-77
2023/03/28 09:27:04;;;;;;;;;;;6.50;99.90;;;;;;8261140;28;19913;-77
2023/03/28 09:31:05;;;;;;;;;;;7.10;99.90;;;;;;8260237;28;19977;-76
2023/03/28 09:35:17;;;;;;;;;;;6.60;99.90;;;;;;8252333;28;20499;-77
2023/03/28 09:39:23;;;;;;;;;;;5.70;99.90;;;;;;8247935;28;19914;-77
2023/03/28 09:43:25;;;;;;;;;;;5.50;99.90;;;;;;8252683;28;19909;-76
2023/03/28 09:47:26;;;;;;;;;;;5.50;99.90;;;;;;8259951;28;19964;-78
2023/03/28 09:51:26;;;;;;;;;;;6.30;99.90;;;;;;8250645;28;19916;-76
2023/03/28 09:55:28;;;;;;;;;;;6.90;99.90;;;;;;8250072;28;20008;-76
2023/03/28 09:59:29;;;;;;;;;;;8.00;99.90;;;;;;8248361;28;19910;-76
2023/03/28 10:03:33;;;;;;;;;;;8.70;99.90;;;;;;8259438;28;19906;-76
2023/03/28 10:07:41;;;;;;;;;;;8.50;99.90;;;;;;8256986;28;20434;-77
2023/03/28 10:11:54;;;;;;;;;;;9.40;99.90;;;;;;8259750;28;19953;-76
2023/03/28 10:15:56;;;;;;;;;;;9.80;99.90;;;;;;8253958;28;19910;-77
2023/03/28 10:20:09;;;;;;;;;;;10.40;99.90;;;;;;8248972;28;19910;-77
2023/03/28 10:24:11;;;;;;;;;;;10.60;99.90;;;;;;8248050;28;19913;-76
2023/03/28 10:28:19;;;;;;;;;;;10.80;99.90;;;;;;8248937;28;19921;-77
2023/03/28 10:32:27;;;;;;;;;;;11.60;99.90;;;;;;8251017;28;19941;-76
2023/03/28 10:36:31;;;;;;;;;;;11.60;95.80;;;;;;8242018;28;19913;-77
2023/03/28 10:40:32;;;;;;;;;;;11.80;94.00;;;;;;8251460;28;20358;-78
2023/03/28 10:44:36;;;;;;;;;;;12.50;95.30;;;;;;8258471;28;19916;-77
2023/03/28 10:48:38;;;;;;;;;;;12.90;95.50;;;;;;8256500;28;20012;-77
2023/03/28 10:52:47;;;;;;;;;;;13.50;96.40;;;;;;8256291;28;20267;-77
2023/03/28 10:57:09;;;;;;;;;;;12.90;94.50;;;;;;8248453;28;19906;-76
2023/03/28 11:01:17;;;;;;;;;;;12.20;91.00;;;;;;8249744;28;19920;-77
2023/03/28 11:05:30;;;;;;;;;;;11.40;94.00;;;;;;8256610;28;19909;-77
2023/03/28 11:09:37;;;;;;;;;;;10.50;95.10;;;;;;8260215;28;19921;-76
2023/03/28 11:13:41;;;;;;;;;;;11.20;93.80;;;;;;8257765;28;19937;-77
2023/03/28 11:17:56;;;;;;;;;;;11.10;91.30;;;;;;8257339;28;20432;-77
2023/03/28 11:22:15;;;;;;;;;;;10.00;93.40;;;;;;8258273;28;20436;-77
2023/03/28 11:26:38;;;;;;;;;;;9.50;94.80;;;;;;8258218;28;19913;-77
2023/03/28 11:30:40;;;;;;;;;;;11.30;94.10;;;;;;8257154;28;19915;-77
2023/03/28 11:34:45;;;;;;;;;;;9.50;88.30;;;;;;8257306;28;20388;-77
2023/03/28 11:38:51;;;;;;;;;;;9.20;93.70;;;;;;8261150;28;19956;-77
2023/03/28 11:43:11;;;;;;;;;;;11.10;91.40;;;;;;8247999;28;19955;-77
2023/03/28 11:47:15;;;;;;;;;;;12.50;93.60;;;;;;8248124;28;19914;-77
2023/03/28 11:51:25;;;;;;;;;;;12.00;89.30;;;;;;8246517;28;19949;-77
2023/03/28 11:55:29;;;;;;;;;;;11.00;89.40;;;;;;8244530;28;19992;-77
2023/03/28 11:59:33;;;;;;;;;;;12.10;87.60;;;;;;8250263;28;19917;-77
2023/03/28 12:03:53;;;;;;;;;;;12.40;90.20;;;;;;8242334;28;19918;-77
2023/03/28 12:07:59;;;;;;;;;;;12.90;87.60;;;;;;8250403;28;19972;-77
2023/03/28 12:12:18;;;;;;;;;;;14.10;81.00;;;;;;8245330;28;20423;-77
2023/03/28 12:16:23;;;;;;;;;;;15.10;79.10;;;;;;8246595;28;20354;-77
2023/03/28 12:20:28;;;;;;;;;;;14.60;78.40;;;;;;8253595;28;20387;-77
2023/03/28 12:24:39;;;;;;;;;;;15.00;79.10;;;;;;8240556;28;19992;-78
2023/03/28 12:28:42;;;;;;;;;;;14.70;75.90;;;;;;8249279;28;20254;-77
2023/03/28 12:32:49;;;;;;;;;;;13.30;74.20;;;;;;8251922;28;20290;-78
2023/03/28 12:36:53;;;;;;;;;;;12.80;79.90;;;;;;8260779;28;19989;-77
2023/03/28 12:41:04;;;;;;;;;;;11.80;81.80;;;;;;8257890;28;19921;-78
2023/03/28 12:45:08;;;;;;;;;;;12.60;80.30;;;;;;8258608;28;19963;-78
2023/03/28 12:49:15;;;;;;;;;;;13.80;76.00;;;;;;8255971;28;20394;-78
2023/03/28 12:53:16;;;;;;;;;;;14.40;79.10;;;;;;8259977;28;20099;-77
2023/03/28 12:57:38;;;;;;;;;;;14.50;74.90;;;;;;8252738;28;19920;-77
2023/03/28 13:01:50;;;;;;;;;;;14.80;79.50;;;;;;8265471;28;19980;-77
2023/03/28 13:06:01;;;;;;;;;;;15.50;70.30;;;;;;8253835;28;19976;-78
2023/03/28 13:10:19;;;;;;;;;;;15.50;74.10;;;;;;8252139;28;20247;-77
2023/03/28 13:14:29;;;;;;;;;;;15.40;72.70;;;;;;8260897;28;20448;-77
2023/03/28 13:18:31;;;;;;;;;;;15.50;75.40;;;;;;8261064;28;20370;-78
2023/03/28 13:22:33;;;;;;;;;;;15.40;68.70;;;;;;8263197;28;19906;-78
2023/03/28 13:27:12;;;;;;;;;;;15.70;72.20;;;;;;8257337;28;19939;-78
2023/03/28 13:31:39;;;;;;;;;;;16.00;69.10;;;;;;8189440;28;19914;-77
2023/03/28 13:35:40;;;;;;;;;;;16.50;66.40;;;;;;8233884;28;19916;-78
2023/03/28 13:39:48;;;;;;;;;;;16.90;60.10;;;;;;8256099;28;19906;-77
2023/03/28 13:43:56;;;;;;;;;;;15.90;64.90;;;;;;8262134;28;19905;-77
2023/03/28 13:47:57;;;;;;;;;;;15.20;67.30;;;;;;8261232;28;20187;-78
2023/03/28 13:52:06;;;;;;;;;;;15.30;68.90;;;;;;8259454;28;20395;-77
2023/03/28 13:56:22;;;;;;;;;;;15.60;64.70;;;;;;8260887;28;20381;-78
2023/03/28 14:00:24;;;;;;;;;;;16.40;66.80;;;;;;8257451;28;19937;-77
2023/03/28 14:04:26;;;;;;;;;;;17.40;68.60;;;;;;8260716;28;19906;-77
2023/03/28 14:08:27;;;;;;;;;;;18.20;63.90;;;;;;8260760;28;20001;-78
2023/03/28 14:12:28;;;;;;;;;;;17.00;62.20;;;;;;8249588;28;20286;-78
2023/03/28 14:16:29;;;;;;;;;;;16.70;63.10;;;;;;8255351;28;19910;-78
2023/03/28 14:20:31;;;;;;;;;;;16.60;64.00;;;;;;8252668;28;19914;-78
2023/03/28 14:24:32;;;;;;;;;;;16.30;64.60;;;;;;8260766;28;19992;-78
2023/03/28 14:28:32;;;;;;;;;;;16.70;60.60;;;;;;8260349;28;19917;-78
2023/03/28 14:32:33;;;;;;;;;;;16.80;63.80;;;;;;8258968;28;19937;-77
2023/03/28 14:36:52;;;;;;;;;;;18.30;56.10;;;;;;8250195;28;20349;-77
2023/03/28 14:40:53;;;;;;;;;;;18.50;58.00;;;;;;8240774;28;20081;-78
2023/03/28 14:44:53;;;;;;;;;;;20.00;57.50;;;;;;8250312;28;19942;-79
2023/03/28 14:48:56;;;;;;;;;;;21.60;50.40;;;;;;8258261;28;19939;-77
2023/03/28 14:53:02;;;;;;;;;;;21.20;50.50;;;;;;8252577;28;19917;-77
2023/03/28 14:57:03;;;;;;;;;;;19.80;52.40;;;;;;8254682;28;19917;-77
2023/03/28 15:01:04;;;;;;;;;;;19.00;52.10;;;;;;8248267;28;19918;-77
2023/03/28 15:05:07;;;;;;;;;;;18.10;53.80;;;;;;8254342;28;19913;-77
2023/03/28 15:09:10;;;;;;;;;;;16.70;55.40;;;;;;8248657;28;20319;-77
2023/03/28 15:13:12;;;;;;;;;;;17.80;54.90;;;;;;8243036;28;19984;-76
2023/03/28 15:17:17;;;;;;;;;;;20.20;52.30;;;;;;8244122;28;20037;-76
2023/03/28 15:21:20;;;;;;;;;;;17.80;52.40;;;;;;8243183;28;19910;-76
2023/03/28 15:25:22;;;;;;;;;;;14.90;58.10;;;;;;8251613;28;19910;-76
2023/03/28 15:29:24;;;;;;;;;;;12.80;63.30;;;;;;8247066;28;20405;-78
2023/03/28 15:33:25;;;;;;;;;;;11.60;73.60;;;;;;8253451;28;19949;-76
2023/03/28 15:37:26;;;;;;;;;;;10.90;70.80;;;;;;8254679;28;19910;-76
2023/03/28 15:41:40;;;;;;;;;;;10.40;75.60;;;;;;8257159;28;19964;-76
2023/03/28 15:45:42;;;;;;;;;;;10.00;74.40;;;;;;8247050;28;20389;-76
2023/03/28 15:49:43;;;;;;;;;;;10.60;74.10;;;;;;8243349;28;19961;-76
2023/03/28 15:53:44;;;;;;;;;;;13.20;64.70;;;;;;8251174;28;19914;-76
2023/03/28 15:57:46;;;;;;;;;;;15.50;62.30;;;;;;8240975;28;19909;-77
2023/03/28 16:01:47;;;;;;;;;;;16.10;58.40;;;;;;8259419;28;19997;-77
2023/03/28 16:05:49;;;;;;;;;;;17.00;57.70;;;;;;8257275;28;20275;-76
2023/03/28 16:09:50;;;;;;;;;;;16.80;57.80;;;;;;8254877;28;19953;-76
2023/03/28 16:13:50;;;;;;;;;;;16.30;53.80;;;;;;8258891;28;19914;-76
2023/03/28 16:17:54;;;;;;;;;;;16.30;54.70;;;;;;8257518;28;20502;-77
2023/03/28 16:21:54;;;;;;;;;;;17.20;54.20;;;;;;8261776;28;20305;-76
2023/03/28 16:25:55;;;;;;;;;;;16.70;55.10;;;;;;8268463;28;20301;-77
2023/03/28 16:29:55;;;;;;;;;;;13.90;60.70;;;;;;8262911;28;20349;-76
2023/03/28 16:33:56;;;;;;;;;;;11.50;64.70;;;;;;8257092;28;20398;-76
2023/03/28 16:37:56;;;;;;;;;;;10.10;68.40;;;;;;8262206;28;20000;-76
2023/03/28 16:41:57;;;;;;;;;;;9.40;71.60;;;;;;8261417;28;19973;-76
2023/03/28 16:45:57;;;;;;;;;;;9.00;72.70;;;;;;8249520;28;19921;-77
2023/03/28 16:49:58;;;;;;;;;;;8.80;75.20;;;;;;8249127;28;20004;-76
2023/03/28 16:53:58;;;;;;;;;;;8.70;76.40;;;;;;8247982;28;19925;-77
2023/03/28 16:57:59;;;;;;;;;;;8.60;77.80;;;;;;8251485;28;19945;-77
2023/03/28 17:01:59;;;;;;;;;;;8.40;77.30;;;;;;8252387;28;20387;-77
2023/03/28 17:06:04;;;;;;;;;;;8.20;77.30;;;;;;8256480;28;19910;-77
2023/03/28 17:10:05;;;;;;;;;;;7.70;81.00;;;;;;8259437;28;19924;-76
2023/03/28 17:14:06;;;;;;;;;;;7.30;81.90;;;;;;8262105;28;20338;-77
2023/03/28 17:18:06;;;;;;;;;;;7.20;84.40;;;;;;8259730;28;19909;-77
2023/03/28 17:22:07;;;;;;;;;;;7.00;86.10;;;;;;8259263;28;19917;-78
2023/03/28 17:26:08;;;;;;;;;;;6.60;90.40;;;;;;8258416;28;20224;-77
2023/03/28 17:30:08;;;;;;;;;;;6.40;91.20;;;;;;8259979;28;20008;-77
2023/03/28 17:34:10;;;;;;;;;;;6.30;93.00;;;;;;8241843;28;70998;-77
2023/03/28 17:38:10;;;;;;;;;;;5.90;95.00;;;;;;8251000;28;19953;-77
2023/03/28 17:42:11;;;;;;;;;;;5.60;97.60;;;;;;8245451;28;19917;-77
2023/03/28 17:46:12;;;;;;;;;;;5.30;98.50;;;;;;8254694;28;19914;-76
2023/03/28 17:50:12;;;;;;;;;;;5.00;99.20;;;;;;8245741;28;19941;-77
2023/03/28 17:54:13;;;;;;;;;;;4.50;99.90;;;;;;8237834;28;19913;-77
2023/03/28 17:58:14;;;;;;;;;;;4.10;99.90;;;;;;8251437;28;20302;-77
2023/03/28 18:02:15;;;;;;;;;;;3.90;99.90;;;;;;8254583;28;20029;-78
2023/03/28 18:06:15;;;;;;;;;;;3.50;99.90;;;;;;8254666;28;20402;-77
2023/03/28 18:10:16;;;;;;;;;;;3.50;99.90;;;;;;8243041;28;20394;-77
2023/03/28 18:14:17;;;;;;;;;;;3.60;99.90;;;;;;8247816;28;19918;-77
2023/03/28 18:18:17;;;;;;;;;;;3.50;99.90;;;;;;8250616;28;19941;-77
2023/03/28 18:22:18;;;;;;;;;;;3.40;99.90;;;;;;8254625;28;19906;-77
2023/03/28 18:26:18;;;;;;;;;;;3.20;99.90;;;;;;8255520;28;20406;-77
2023/03/28 18:30:19;;;;;;;;;;;3.00;99.90;;;;;;8256191;28;20522;-77
2023/03/28 18:34:19;;;;;;;;;;;2.70;99.90;;;;;;8255892;28;19913;-77
2023/03/28 18:38:20;;;;;;;;;;;2.40;99.90;;;;;;8246575;28;20318;-77
2023/03/28 18:42:21;;;;;;;;;;;2.20;99.90;;;;;;8237027;28;19914;-76
2023/03/28 18:46:23;;;;;;;;;;;2.00;99.90;;;;;;8250992;28;20565;-77
2023/03/28 18:50:24;;;;;;;;;;;2.20;99.90;;;;;;8246122;28;19918;-77
2023/03/28 18:54:25;;;;;;;;;;;2.70;99.90;;;;;;8250694;28;19913;-77
2023/03/28 18:58:25;;;;;;;;;;;3.00;99.90;;;;;;8252027;28;19913;-77
2023/03/28 19:02:27;;;;;;;;;;;2.90;99.90;;;;;;8241627;28;20501;-76
2023/03/28 19:06:27;;;;;;;;;;;2.80;99.90;;;;;;8237312;28;20010;-77
2023/03/28 19:10:28;;;;;;;;;;;2.70;99.90;;;;;;8236741;28;19913;-78
2023/03/28 19:14:29;;;;;;;;;;;2.80;99.90;;;;;;8242708;28;20018;-77
2023/03/28 19:18:29;;;;;;;;;;;2.60;99.90;;;;;;8250752;28;19918;-77
2023/03/28 19:22:30;;;;;;;;;;;2.60;99.90;;;;;;8251976;28;19913;-77
2023/03/28 19:26:31;;;;;;;;;;;2.70;99.90;;;;;;8255428;28;19948;-76
2023/03/28 19:30:31;;;;;;;;;;;2.70;99.90;;;;;;8254650;28;19934;-77
2023/03/28 19:34:31;;;;;;;;;;;2.80;99.90;;;;;;8251346;28;20337;-77
2023/03/28 19:38:33;;;;;;;;;;;3.30;99.90;;;;;;8243187;28;19957;-76
2023/03/28 19:42:34;;;;;;;;;;;3.20;99.90;;;;;;8248743;28;20406;-76
2023/03/28 19:46:36;;;;;;;;;;;2.90;99.90;;;;;;8247534;28;19949;-76
2023/03/28 19:50:37;;;;;;;;;;;2.70;99.90;;;;;;8248964;28;19924;-77
2023/03/28 19:54:37;;;;;;;;;;;2.40;99.90;;;;;;8240826;28;19941;-76
2023/03/28 19:58:38;;;;;;;;;;;2.20;99.90;;;;;;8249080;28;19914;-77
2023/03/28 20:02:38;;;;;;;;;;;2.10;99.90;;;;;;8254915;28;20470;-77
2023/03/28 20:06:39;;;;;;;;;;;2.00;99.90;;;;;;8261068;28;20379;-76
2023/03/28 20:10:43;;;;;;;;;;;2.10;99.90;;;;;;8258117;28;19917;-76
2023/03/28 20:14:44;;;;;;;;;;;2.10;99.90;;;;;;8259771;28;19973;-77
2023/03/28 20:18:45;;;;;;;;;;;2.60;99.90;;;;;;8254421;28;19968;-78
2023/03/28 20:22:45;;;;;;;;;;;2.40;99.90;;;;;;8255155;28;19945;-76
2023/03/28 20:26:46;;;;;;;;;;;2.30;99.90;;;;;;8252801;28;19914;-76
2023/03/28 20:30:46;;;;;;;;;;;2.30;99.90;;;;;;8256944;28;20366;-76
2023/03/28 20:34:47;;;;;;;;;;;2.30;99.90;;;;;;8256977;28;20001;-77
2023/03/28 20:38:47;;;;;;;;;;;2.60;99.90;;;;;;8256247;28;19910;-76
2023/03/28 20:42:55;;;;;;;;;;;2.80;99.90;;;;;;8253441;28;19953;-76
2023/03/28 20:46:56;;;;;;;;;;;2.90;99.90;;;;;;8255623;28;20217;-77
2023/03/28 20:50:56;;;;;;;;;;;3.30;99.90;;;;;;8257349;28;20359;-76
2023/03/28 20:54:57;;;;;;;;;;;3.30;99.90;;;;;;8255801;28;19961;-77
2023/03/28 20:58:58;;;;;;;;;;;3.30;99.90;;;;;;8256189;28;20389;-76
2023/03/28 21:02:58;;;;;;;;;;;3.30;99.90;;;;;;8261867;28;19906;-76
2023/03/28 21:07:00;;;;;;;;;;;3.00;99.90;;;;;;8262420;28;19920;-77
2023/03/28 21:11:01;;;;;;;;;;;3.00;99.90;;;;;;8261576;28;19916;-76
2023/03/28 21:15:01;;;;;;;;;;;3.00;99.90;;;;;;8259179;28;19909;-79
2023/03/28 21:19:02;;;;;;;;;;;3.10;99.90;;;;;;8259702;28;19963;-79
2023/03/28 21:23:03;;;;;;;;;;;2.90;99.90;;;;;;8259563;28;20113;-77
2023/03/28 21:27:03;;;;;;;;;;;3.00;99.90;;;;;;8260306;28;19924;-76
2023/03/28 21:31:06;;;;;;;;;;;3.10;99.90;;;;;;8262129;28;19910;-77
2023/03/28 21:35:07;;;;;;;;;;;3.00;99.90;;;;;;8259156;28;19934;-78
2023/03/28 21:39:08;;;;;;;;;;;3.10;99.90;;;;;;8262734;28;20016;-77
2023/03/28 21:43:09;;;;;;;;;;;3.60;99.90;;;;;;8262523;28;19988;-77
2023/03/28 21:47:09;;;;;;;;;;;3.50;99.90;;;;;;8259736;28;20016;-78
2023/03/28 21:51:10;;;;;;;;;;;3.40;99.90;;;;;;8261551;28;20382;-77
2023/03/28 21:55:11;;;;;;;;;;;3.90;99.90;;;;;;8262222;28;20365;-76
2023/03/28 21:59:11;;;;;;;;;;;3.70;99.90;;;;;;8261768;28;19905;-76
2023/03/28 22:03:12;;;;;;;;;;;3.50;99.90;;;;;;8259831;28;19938;-77
2023/03/28 22:07:12;;;;;;;;;;;3.50;99.90;;;;;;8262026;28;19910;-76
2023/03/28 22:11:17;;;;;;;;;;;3.40;99.90;;;;;;8261079;28;19909;-78
2023/03/28 22:15:17;;;;;;;;;;;3.70;99.90;;;;;;8261560;28;19912;-76
2023/03/28 22:19:18;;;;;;;;;;;3.90;99.90;;;;;;8262183;28;19913;-76
2023/03/28 22:23:20;;;;;;;;;;;3.90;99.90;;;;;;8260598;28;20546;-76
2023/03/28 22:27:21;;;;;;;;;;;3.90;99.90;;;;;;8260776;28;19921;-77
2023/03/28 22:31:23;;;;;;;;;;;3.80;99.90;;;;;;8260803;28;20454;-77
2023/03/28 22:35:24;;;;;;;;;;;4.00;99.90;;;;;;8260289;28;19910;-76
2023/03/28 22:39:24;;;;;;;;;;;3.80;99.90;;;;;;8259796;28;19916;-77
2023/03/28 22:43:25;;;;;;;;;;;3.60;99.90;;;;;;8261420;28;19906;-77
2023/03/28 22:47:29;;;;;;;;;;;3.40;99.90;;;;;;8259847;28;19960;-77
2023/03/28 22:51:29;;;;;;;;;;;3.40;99.90;;;;;;8260852;28;19909;-77
2023/03/28 22:55:30;;;;;;;;;;;3.40;99.90;;;;;;8259684;28;19916;-77
2023/03/28 22:59:31;;;;;;;;;;;3.60;99.90;;;;;;8260869;28;20434;-76
2023/03/28 23:03:32;;;;;;;;;;;3.80;99.90;;;;;;8260214;28;20004;-77
2023/03/28 23:07:35;;;;;;;;;;;4.40;99.90;;;;;;8259443;28;19914;-76
2023/03/28 23:11:36;;;;;;;;;;;4.90;99.90;;;;;;8258942;28;19910;-75
2023/03/28 23:15:36;;;;;;;;;;;4.80;99.90;;;;;;8258675;28;20505;-76
2023/03/28 23:19:37;;;;;;;;;;;4.70;99.90;;;;;;8258571;28;19993;-75
2023/03/28 23:23:37;;;;;;;;;;;4.70;99.90;;;;;;8258228;28;19913;-75
2023/03/28 23:27:38;;;;;;;;;;;4.60;99.90;;;;;;8258359;28;19914;-76
2023/03/28 23:31:38;;;;;;;;;;;4.50;99.90;;;;;;8259436;28;19909;-76
2023/03/28 23:35:40;;;;;;;;;;;4.50;99.90;;;;;;8258101;28;19976;-75
2023/03/28 23:39:41;;;;;;;;;;;4.20;99.90;;;;;;8257500;28;19914;-76
2023/03/28 23:43:41;;;;;;;;;;;4.30;99.90;;;;;;8257458;28;19910;-75
2023/03/28 23:47:42;;;;;;;;;;;4.20;99.90;;;;;;8263921;28;19914;-76